createdAt,value
2023-03-24T00:00:16.165Z,8.90
2023-03-24T00:02:43.306Z,7.68
2023-03-24T00:05:11.872Z,6.72
2023-03-24T00:07:39.731Z,7.85
2023-03-24T00:10:11.758Z,5.60
2023-03-24T00:12:38.465Z,9.57
2023-03-24T00:15:08.381Z,11.45
2023-03-24T00:17:36.045Z,14.07
2023-03-24T00:20:07.586Z,14.93
2023-03-24T00:22:34.322Z,13.85
2023-03-24T00:25:04.278Z,15.35
2023-03-24T00:27:31.147Z,19.27
2023-03-24T00:29:59.501Z,12.50
2023-03-24T00:32:27.364Z,13.57
2023-03-24T00:34:54.333Z,13.10
2023-03-24T00:37:20.877Z,13.40
2023-03-24T00:39:47.309Z,19.63
2023-03-24T00:42:13.766Z,26.42
2023-03-24T00:44:40.178Z,23.63
2023-03-24T00:47:06.676Z,32.67
2023-03-24T00:49:42.481Z,68.57
2023-03-24T00:52:13.485Z,125.93
2023-03-24T00:54:40.300Z,79.93
2023-03-24T00:57:07.429Z,57.42
2023-03-24T00:59:42.157Z,30.90
2023-03-24T01:02:11.925Z,26.92
2023-03-24T01:04:39.738Z,15.00
2023-03-24T01:07:07.847Z,11.73
2023-03-24T01:09:36.301Z,12.27
2023-03-24T01:12:05.630Z,11.88
2023-03-24T01:14:32.411Z,9.07
2023-03-24T01:16:59.321Z,8.95
2023-03-24T01:19:25.826Z,17.92
2023-03-24T01:21:54.457Z,10.20
2023-03-24T01:24:21.451Z,10.25
2023-03-24T01:26:48.026Z,10.65
2023-03-24T01:29:14.420Z,9.68
2023-03-24T01:31:40.908Z,11.90
2023-03-24T01:34:07.410Z,10.20
2023-03-24T01:36:33.899Z,8.07
2023-03-24T01:39:01.307Z,8.35
2023-03-24T01:41:31.643Z,8.50
2023-03-24T01:43:58.056Z,6.05
2023-03-24T01:46:25.894Z,6.90
2023-03-24T01:48:59.781Z,6.18
2023-03-24T01:53:55.663Z,6.80
2023-03-24T01:56:22.577Z,8.15
2023-03-24T01:58:51.682Z,10.48
2023-03-24T02:01:19.049Z,8.88
2023-03-24T02:03:46.001Z,11.90
2023-03-24T02:06:13.083Z,10.10
2023-03-24T02:08:48.263Z,8.93
2023-03-24T02:11:14.725Z,11.98
2023-03-24T02:13:41.292Z,11.70
2023-03-24T02:16:25.514Z,10.15
2023-03-24T02:19:14.818Z,12.25
2023-03-24T02:21:50.524Z,6.15
2023-03-24T02:24:22.993Z,6.32
2023-03-24T02:26:53.944Z,11.85
2023-03-24T02:29:20.375Z,6.07
2023-03-24T02:31:49.906Z,7.07
2023-03-24T02:34:28.615Z,8.43
2023-03-24T02:37:13.878Z,6.15
2023-03-24T02:39:50.464Z,6.53
2023-03-24T02:42:34.220Z,8.50
2023-03-24T02:45:24.442Z,10.35
2023-03-24T02:47:50.962Z,6.70
2023-03-24T02:50:17.742Z,6.03
2023-03-24T02:52:53.412Z,9.65
2023-03-24T02:55:34.470Z,11.55
2023-03-24T02:58:09.008Z,7.20
2023-03-24T03:00:39.985Z,9.68
2023-03-24T03:03:10.346Z,9.05
2023-03-24T03:05:39.453Z,7.78
2023-03-24T03:08:08.760Z,9.57
2023-03-24T03:10:39.894Z,6.13
2023-03-24T03:13:09.672Z,8.43
2023-03-24T03:15:38.075Z,8.13
2023-03-24T03:18:25.523Z,7.32
2023-03-24T03:20:56.633Z,7.15
2023-03-24T03:23:25.622Z,8.30
2023-03-24T03:25:55.434Z,7.25
2023-03-24T03:28:23.899Z,6.40
2023-03-24T03:30:57.593Z,10.32
2023-03-24T03:33:31.177Z,5.53
2023-03-24T03:36:02.316Z,6.57
2023-03-24T03:38:37.966Z,8.63
2023-03-24T03:41:06.893Z,11.77
2023-03-24T03:43:33.620Z,7.22
2023-03-24T03:46:01.100Z,6.55
2023-03-24T03:48:29.229Z,8.07
2023-03-24T03:51:10.163Z,8.50
2023-03-24T03:56:06.313Z,8.25
2023-03-24T03:58:32.799Z,7.78
2023-03-24T04:00:59.296Z,7.65
2023-03-24T04:03:37.935Z,9.10
2023-03-24T04:06:13.815Z,7.53
2023-03-24T04:08:53.107Z,10.85
2023-03-24T04:11:31.890Z,7.50
2023-03-24T04:14:07.624Z,7.85
2023-03-24T04:16:40.715Z,10.00
2023-03-24T04:19:19.380Z,9.90
2023-03-24T04:21:54.971Z,10.05
2023-03-24T04:24:40.325Z,13.43
2023-03-24T04:27:09.580Z,10.45
2023-03-24T04:29:42.465Z,10.60
2023-03-24T04:32:20.048Z,9.40
2023-03-24T04:34:50.722Z,5.85
2023-03-24T04:37:25.801Z,5.95
2023-03-24T04:39:53.972Z,6.38
2023-03-24T04:42:22.623Z,6.53
2023-03-24T04:44:51.641Z,12.18
2023-03-24T04:47:20.426Z,7.10
2023-03-24T04:49:47.007Z,7.47
2023-03-24T04:52:13.370Z,8.13
2023-03-24T04:54:39.807Z,7.47
2023-03-24T04:57:06.436Z,7.30
2023-03-24T04:59:34.329Z,8.60
2023-03-24T05:02:01.907Z,8.55
2023-03-24T05:04:29.663Z,9.88
2023-03-24T05:06:56.308Z,11.00
2023-03-24T05:09:24.091Z,11.75
2023-03-24T05:11:51.087Z,8.98
2023-03-24T05:14:17.494Z,16.17
2023-03-24T05:16:43.997Z,12.18
2023-03-24T05:19:10.439Z,17.17
2023-03-24T05:21:36.813Z,18.92
2023-03-24T05:24:05.739Z,12.95
2023-03-24T05:26:34.884Z,13.63
2023-03-24T05:29:01.329Z,11.38
2023-03-24T05:31:27.819Z,10.98
2023-03-24T05:33:54.252Z,11.75
2023-03-24T05:36:20.942Z,10.15
2023-03-24T05:38:47.328Z,9.75
2023-03-24T05:41:13.739Z,10.50
2023-03-24T05:43:40.229Z,10.55
2023-03-24T05:46:06.875Z,15.07
2023-03-24T05:48:33.257Z,12.88
2023-03-24T05:50:59.588Z,13.98
2023-03-24T05:53:26.193Z,11.27
2023-03-24T05:55:53.675Z,10.48
2023-03-24T05:58:21.469Z,8.68
2023-03-24T06:00:47.914Z,13.52
2023-03-24T06:03:17.560Z,8.40
2023-03-24T06:05:45.910Z,7.93
2023-03-24T06:08:12.868Z,6.78
2023-03-24T06:10:40.663Z,10.65
2023-03-24T06:13:08.959Z,6.50
2023-03-24T06:15:35.638Z,8.82
2023-03-24T06:18:02.063Z,6.15
2023-03-24T06:20:29.224Z,5.30
2023-03-24T06:22:59.880Z,5.68
2023-03-24T06:25:28.634Z,8.70
2023-03-24T06:27:55.178Z,6.25
2023-03-24T06:30:21.636Z,14.35
2023-03-24T06:32:51.282Z,9.90
2023-03-24T06:35:17.880Z,8.95
2023-03-24T06:37:44.917Z,8.60
2023-03-24T06:40:14.263Z,9.65
2023-03-24T06:42:40.766Z,9.77
2023-03-24T06:45:07.598Z,9.90
2023-03-24T06:47:34.107Z,8.70
2023-03-24T06:50:00.549Z,9.55
2023-03-24T06:52:27.895Z,6.32
2023-03-24T06:54:54.595Z,9.00
2023-03-24T06:57:21.651Z,7.13
2023-03-24T06:59:49.093Z,9.63
2023-03-24T07:02:15.875Z,6.68
2023-03-24T07:04:45.842Z,5.95
2023-03-24T07:07:44.738Z,7.20
2023-03-24T07:10:03.724Z,8.95
2023-03-24T07:12:31.083Z,5.93
2023-03-24T07:14:57.788Z,5.13
2023-03-24T07:17:25.212Z,8.30
2023-03-24T07:19:51.789Z,8.55
2023-03-24T07:22:18.237Z,6.97
2023-03-24T07:24:44.638Z,6.82
2023-03-24T07:27:13.468Z,5.72
2023-03-24T07:29:39.856Z,9.65
2023-03-24T07:32:09.166Z,7.47
2023-03-24T07:34:36.947Z,10.25
2023-03-24T07:37:03.300Z,11.15
2023-03-24T07:39:30.042Z,13.40
2023-03-24T07:41:57.010Z,9.15
2023-03-24T07:44:23.573Z,7.50
2023-03-24T07:46:49.977Z,7.45
2023-03-24T07:49:19.920Z,8.50
2023-03-24T07:51:46.671Z,6.20
2023-03-24T07:54:13.181Z,8.52
2023-03-24T07:56:42.322Z,8.88
2023-03-24T07:59:09.786Z,9.02
2023-03-24T08:01:36.994Z,9.05
2023-03-24T08:04:04.808Z,5.43
2023-03-24T08:06:34.805Z,6.82
2023-03-24T08:09:01.344Z,5.50
2023-03-24T08:11:27.904Z,9.48
2023-03-24T08:13:54.313Z,9.45
2023-03-24T08:16:21.391Z,7.63
2023-03-24T08:18:48.732Z,9.32
2023-03-24T08:21:17.476Z,5.03
2023-03-24T08:23:47.234Z,5.10
2023-03-24T08:26:13.565Z,6.68
2023-03-24T08:28:43.100Z,5.78
2023-03-24T08:31:09.554Z,6.63
2023-03-24T08:33:36.004Z,5.95
2023-03-24T08:36:02.396Z,5.03
2023-03-24T08:38:31.744Z,8.02
2023-03-24T08:41:02.695Z,6.78
2023-03-24T08:43:30.185Z,6.15
2023-03-24T08:45:57.717Z,7.50
2023-03-24T08:48:24.316Z,7.13
2023-03-24T08:50:50.914Z,4.60
2023-03-24T08:53:17.321Z,8.07
2023-03-24T08:55:44.709Z,7.57
2023-03-24T08:58:18.208Z,9.07
2023-03-24T09:00:46.046Z,10.88
2023-03-24T09:03:13.897Z,7.82
2023-03-24T09:05:44.724Z,8.93
2023-03-24T09:08:12.366Z,6.93
2023-03-24T09:10:39.191Z,6.43
2023-03-24T09:13:05.597Z,7.57
2023-03-24T09:15:32.217Z,8.43
2023-03-24T09:17:58.882Z,4.85
2023-03-24T09:20:26.017Z,4.95
2023-03-24T09:22:52.636Z,6.60
2023-03-24T09:25:20.673Z,5.65
2023-03-24T09:27:47.386Z,5.05
2023-03-24T09:30:15.571Z,5.78
2023-03-24T09:32:42.090Z,10.95
2023-03-24T09:35:08.786Z,6.25
2023-03-24T09:37:35.511Z,13.70
2023-03-24T09:40:02.464Z,5.85
2023-03-24T09:42:31.872Z,7.60
2023-03-24T09:44:59.240Z,7.88
2023-03-24T09:47:31.135Z,7.80
2023-03-24T09:50:00.790Z,7.65
2023-03-24T09:52:33.928Z,6.55
2023-03-24T09:55:02.596Z,6.55
2023-03-24T09:57:39.312Z,5.05
2023-03-24T10:00:15.615Z,10.85
2023-03-24T10:02:42.225Z,8.88
2023-03-24T10:05:16.333Z,9.30
2023-03-24T10:07:46.472Z,7.13
2023-03-24T10:10:21.731Z,7.13
2023-03-24T10:12:48.843Z,7.20
2023-03-24T10:15:38.251Z,8.45
2023-03-24T10:18:23.493Z,7.22
2023-03-24T10:21:06.555Z,9.98
2023-03-24T10:23:58.574Z,8.88
2023-03-24T10:26:48.415Z,9.48
2023-03-24T10:29:18.028Z,8.60
2023-03-24T10:31:47.774Z,8.88
2023-03-24T10:34:14.370Z,11.88
2023-03-24T10:36:41.155Z,7.88
2023-03-24T10:39:19.676Z,8.55
2023-03-24T10:41:48.446Z,7.72
2023-03-24T10:44:15.121Z,9.02
2023-03-24T10:46:47.047Z,5.53
2023-03-24T10:49:14.651Z,6.00
2023-03-24T10:51:45.055Z,7.65
2023-03-24T10:54:17.614Z,7.90
2023-03-24T10:56:45.155Z,5.78
2023-03-24T10:59:19.410Z,6.10
2023-03-24T11:01:46.157Z,6.30
2023-03-24T11:04:15.009Z,7.40
2023-03-24T11:06:56.752Z,5.82
2023-03-24T11:09:25.318Z,8.18
2023-03-24T11:11:53.599Z,5.80
2023-03-24T11:14:25.488Z,7.03
2023-03-24T11:16:53.163Z,6.88
2023-03-24T11:19:23.570Z,6.53
2023-03-24T11:21:51.661Z,5.43
2023-03-24T11:24:19.506Z,4.82
2023-03-24T11:26:50.296Z,4.18
2023-03-24T11:29:20.578Z,4.30
2023-03-24T11:31:58.415Z,3.90
2023-03-24T11:34:28.476Z,5.35
2023-03-24T11:36:54.951Z,4.95
2023-03-24T11:39:25.681Z,4.20
2023-03-24T11:42:03.682Z,5.03
2023-03-24T11:44:33.306Z,4.10
2023-03-24T11:47:03.178Z,4.78
2023-03-24T11:49:31.947Z,5.22
2023-03-24T11:51:58.804Z,4.38
2023-03-24T11:54:29.598Z,4.75
2023-03-24T11:56:59.030Z,6.47
2023-03-24T11:59:37.545Z,5.13
2023-03-24T12:02:22.894Z,4.18
2023-03-24T12:05:08.013Z,5.00
2023-03-24T12:07:49.739Z,6.25
2023-03-24T12:10:26.617Z,5.38
2023-03-24T12:13:26.000Z,7.93
2023-03-24T12:16:02.236Z,4.75
2023-03-24T12:18:51.950Z,7.25
2023-03-24T12:21:18.451Z,6.70
2023-03-24T12:23:47.906Z,6.63
2023-03-24T12:26:20.572Z,6.38
2023-03-24T12:28:47.075Z,5.60
2023-03-24T12:31:30.108Z,7.55
2023-03-24T12:34:12.038Z,7.03
2023-03-24T12:36:41.647Z,7.30
2023-03-24T12:39:10.057Z,5.90
2023-03-24T12:41:48.702Z,5.82
2023-03-24T12:44:33.973Z,5.20
2023-03-24T12:47:06.360Z,8.95
2023-03-24T12:49:52.964Z,6.22
2023-03-24T12:52:36.812Z,6.05
2023-03-24T12:55:10.638Z,5.18
2023-03-24T13:00:11.343Z,4.45
2023-03-24T13:03:01.358Z,5.82
2023-03-24T13:05:32.404Z,6.55
2023-03-24T13:08:02.760Z,8.07
2023-03-24T13:10:30.572Z,6.45
2023-03-24T13:13:15.882Z,6.80
2023-03-24T13:15:52.189Z,6.85
2023-03-24T13:18:38.953Z,8.35
2023-03-24T13:21:05.428Z,6.20
2023-03-24T13:23:41.172Z,7.50
2023-03-24T13:26:10.507Z,6.00
2023-03-24T13:29:02.710Z,6.75
2023-03-24T13:31:36.588Z,4.75
2023-03-24T13:34:05.151Z,6.32
2023-03-24T13:36:34.818Z,6.60
2023-03-24T13:39:05.614Z,7.10
2023-03-24T13:41:33.418Z,5.63
2023-03-24T13:44:22.151Z,4.30
2023-03-24T13:47:07.441Z,4.72
2023-03-24T13:49:34.366Z,5.32
2023-03-24T13:52:06.335Z,5.22
2023-03-24T13:54:36.555Z,5.45
2023-03-24T13:57:03.049Z,7.40
2023-03-24T13:59:29.618Z,5.53
2023-03-24T14:02:14.966Z,7.15
2023-03-24T14:04:50.459Z,5.20
2023-03-24T14:07:35.796Z,6.00
2023-03-24T14:10:11.660Z,4.70
2023-03-24T14:12:52.321Z,4.95
2023-03-24T14:15:26.168Z,4.45
2023-03-24T14:17:56.904Z,7.60
2023-03-24T14:20:28.727Z,6.13
2023-03-24T14:22:55.548Z,5.93
2023-03-24T14:25:24.210Z,5.25
2023-03-24T14:27:52.426Z,6.28
2023-03-24T14:30:21.375Z,7.07
2023-03-24T14:32:49.889Z,5.15
2023-03-24T14:35:19.588Z,4.32
2023-03-24T14:37:54.139Z,3.33
2023-03-24T14:40:29.050Z,4.22
2023-03-24T14:42:56.960Z,4.32
2023-03-24T14:45:26.444Z,4.25
2023-03-24T14:47:58.802Z,5.82
2023-03-24T14:50:25.632Z,4.40
2023-03-24T14:52:57.743Z,4.63
2023-03-24T14:55:25.332Z,5.80
2023-03-24T14:57:53.817Z,4.97
2023-03-24T15:00:27.492Z,4.55
2023-03-24T15:03:17.733Z,4.40
2023-03-24T15:05:44.300Z,4.32
2023-03-24T15:08:11.028Z,3.72
2023-03-24T15:10:40.151Z,4.60
2023-03-24T15:13:23.688Z,5.97
2023-03-24T15:15:50.498Z,4.00
2023-03-24T15:18:18.205Z,6.05
2023-03-24T15:20:48.399Z,5.13
2023-03-24T15:23:23.242Z,5.35
2023-03-24T15:25:49.930Z,5.80
2023-03-24T15:28:29.896Z,6.25
2023-03-24T15:30:59.160Z,3.95
2023-03-24T15:33:26.213Z,4.60
2023-03-24T15:35:57.203Z,4.05
2023-03-24T15:38:31.769Z,4.65
2023-03-24T15:41:02.117Z,3.97
2023-03-24T15:43:28.672Z,4.50
2023-03-24T15:46:12.087Z,2.92
2023-03-24T15:48:39.228Z,3.08
2023-03-24T15:51:08.975Z,3.38
2023-03-24T15:53:44.397Z,2.90
2023-03-24T15:56:20.233Z,5.03
2023-03-24T15:59:12.638Z,3.30
2023-03-24T16:01:43.177Z,2.75
2023-03-24T16:04:16.904Z,4.03
2023-03-24T16:06:48.420Z,4.55
2023-03-24T16:09:16.308Z,3.25
2023-03-24T16:11:42.743Z,5.32
2023-03-24T16:14:21.626Z,2.40
2023-03-24T16:16:48.162Z,3.47
2023-03-24T16:19:14.603Z,3.22
2023-03-24T16:21:41.472Z,1.83
2023-03-24T16:24:08.031Z,3.20
2023-03-24T16:26:34.517Z,2.78
2023-03-24T16:29:16.540Z,4.15
2023-03-24T16:31:44.181Z,4.45
2023-03-24T16:34:10.936Z,4.38
2023-03-24T16:36:37.309Z,2.28
2023-03-24T16:39:10.013Z,2.30
2023-03-24T16:41:36.389Z,4.32
2023-03-24T16:44:03.792Z,3.90
2023-03-24T16:46:34.301Z,2.47
2023-03-24T16:49:01.647Z,2.55
2023-03-24T16:51:29.684Z,1.52
2023-03-24T16:53:56.162Z,3.15
2023-03-24T16:56:22.893Z,3.13
2023-03-24T16:58:49.804Z,1.98
2023-03-24T17:01:39.188Z,3.50
2023-03-24T17:04:12.387Z,2.92
2023-03-24T17:06:41.025Z,3.88
2023-03-24T17:09:08.145Z,4.25
2023-03-24T17:11:36.246Z,4.55
2023-03-24T17:14:04.838Z,4.72
2023-03-24T17:16:36.827Z,4.55
2023-03-24T17:19:04.285Z,3.33
2023-03-24T17:21:32.287Z,2.92
2023-03-24T17:23:58.938Z,4.25
2023-03-24T17:26:28.809Z,4.00
2023-03-24T17:28:59.106Z,5.03
2023-03-24T17:31:25.708Z,4.10
2023-03-24T17:33:52.192Z,2.97
2023-03-24T17:36:18.609Z,3.00
2023-03-24T17:38:47.957Z,4.28
2023-03-24T17:41:14.415Z,5.97
2023-03-24T17:43:40.941Z,2.28
2023-03-24T17:46:07.336Z,3.30
2023-03-24T17:48:33.931Z,2.20
2023-03-24T17:51:00.401Z,4.15
2023-03-24T17:53:26.950Z,3.85
2023-03-24T17:55:54.370Z,3.05
2023-03-24T17:58:21.330Z,2.72
2023-03-24T18:00:48.464Z,2.53
2023-03-24T18:03:15.959Z,2.85
2023-03-24T18:05:43.745Z,2.60
2023-03-24T18:08:11.593Z,2.50
2023-03-24T18:10:38.236Z,2.85
2023-03-24T18:13:05.368Z,6.97
2023-03-24T18:15:32.140Z,5.75
2023-03-24T18:17:58.588Z,5.53
2023-03-24T18:20:25.097Z,11.10
2023-03-24T18:22:51.459Z,2.67
2023-03-24T18:25:17.936Z,1.70
2023-03-24T18:27:44.408Z,3.42
2023-03-24T18:30:11.897Z,2.35
2023-03-24T18:32:42.707Z,3.28
2023-03-24T18:35:11.207Z,3.78
2023-03-24T18:37:37.900Z,2.90
2023-03-24T18:40:08.978Z,4.78
2023-03-24T18:42:36.023Z,4.47
2023-03-24T18:45:02.808Z,7.10
2023-03-24T18:47:31.637Z,4.85
2023-03-24T18:49:58.090Z,2.38
2023-03-24T18:52:24.591Z,5.15
2023-03-24T18:54:51.130Z,4.60
2023-03-24T18:57:17.562Z,1.75
2023-03-24T18:59:43.956Z,1.95
2023-03-24T19:02:11.424Z,5.18
2023-03-24T19:04:38.166Z,3.22
2023-03-24T19:07:08.064Z,1.85
2023-03-24T19:09:34.552Z,1.77
2023-03-24T19:12:01.402Z,2.85
2023-03-24T19:14:28.558Z,1.30
2023-03-24T19:16:56.347Z,1.23
2023-03-24T19:19:27.720Z,1.92
2023-03-24T19:21:54.095Z,5.20
2023-03-24T19:24:20.578Z,1.08
2023-03-24T19:26:46.992Z,1.67
2023-03-24T19:29:13.412Z,2.08
2023-03-24T19:31:39.794Z,1.85
2023-03-24T19:34:06.168Z,2.40
2023-03-24T19:36:34.312Z,7.05
2023-03-24T19:39:01.890Z,1.85
2023-03-24T19:41:28.293Z,4.07
2023-03-24T19:43:54.624Z,1.35
2023-03-24T19:46:21.288Z,1.42
2023-03-24T19:48:47.885Z,3.63
2023-03-24T19:51:14.270Z,3.78
2023-03-24T19:53:40.980Z,3.40
2023-03-24T19:56:07.797Z,1.80
2023-03-24T19:58:34.174Z,3.22
2023-03-24T20:01:00.569Z,2.92
2023-03-24T20:03:28.947Z,2.17
2023-03-24T20:05:55.546Z,3.83
2023-03-24T20:08:22.258Z,1.20
2023-03-24T20:10:48.667Z,2.92
2023-03-24T20:13:15.259Z,3.75
2023-03-24T20:15:41.632Z,1.63
2023-03-24T20:18:10.419Z,1.88
2023-03-24T20:20:36.826Z,2.30
2023-03-24T20:23:03.243Z,3.05
2023-03-24T20:25:32.036Z,1.67
2023-03-24T20:28:01.443Z,2.50
2023-03-24T20:30:30.150Z,3.80
2023-03-24T20:32:56.826Z,1.15
2023-03-24T20:35:23.503Z,1.58
2023-03-24T20:37:49.996Z,1.65
2023-03-24T20:40:16.658Z,2.30
2023-03-24T20:42:43.393Z,1.40
2023-03-24T20:45:10.879Z,1.42
2023-03-24T20:47:37.344Z,1.65
2023-03-24T20:50:06.419Z,1.33
2023-03-24T20:52:32.877Z,1.90
2023-03-24T20:55:01.656Z,1.45
2023-03-24T20:57:30.111Z,2.97
2023-03-24T20:59:56.965Z,4.65
2023-03-24T21:02:23.475Z,3.83
2023-03-24T21:04:49.977Z,3.78
2023-03-24T21:07:16.527Z,2.28
2023-03-24T21:09:42.997Z,5.18
2023-03-24T21:12:09.514Z,3.70
2023-03-24T21:14:36.251Z,5.30
2023-03-24T21:17:02.761Z,4.43
2023-03-24T21:19:29.333Z,4.25
2023-03-24T21:21:56.190Z,5.05
2023-03-24T21:24:23.421Z,3.00
2023-03-24T21:26:50.954Z,1.75
2023-03-24T21:29:17.408Z,2.38
2023-03-24T21:31:43.858Z,4.18
2023-03-24T21:34:11.272Z,1.98
2023-03-24T21:36:38.603Z,2.97
2023-03-24T21:39:06.854Z,2.53
2023-03-24T21:41:33.269Z,2.53
2023-03-24T21:44:00.580Z,2.08
2023-03-24T21:46:27.872Z,1.98
2023-03-24T21:48:55.520Z,3.13
2023-03-24T21:51:24.068Z,3.10
2023-03-24T21:53:51.712Z,2.78
2023-03-24T21:56:20.236Z,1.88
2023-03-24T21:58:46.830Z,6.75
2023-03-24T22:01:13.374Z,4.20
2023-03-24T22:03:39.828Z,5.10
2023-03-24T22:06:10.444Z,3.03
2023-03-24T22:08:39.015Z,2.38
2023-03-24T22:11:07.985Z,1.92
2023-03-24T22:13:34.497Z,2.03
2023-03-24T22:16:02.366Z,4.32
2023-03-24T22:18:29.752Z,5.13
2023-03-24T22:20:56.933Z,1.83
2023-03-24T22:23:23.347Z,2.28
2023-03-24T22:25:52.880Z,2.58
2023-03-24T22:28:19.734Z,2.25
2023-03-24T22:30:48.806Z,1.30
2023-03-24T22:33:15.656Z,1.42
2023-03-24T22:35:42.092Z,1.88
2023-03-24T22:38:14.738Z,3.10
2023-03-24T22:40:42.580Z,2.25
2023-03-24T22:43:09.392Z,4.72
2023-03-24T22:45:37.958Z,4.43
2023-03-24T22:48:04.411Z,2.33
2023-03-24T22:50:30.791Z,3.33
2023-03-24T22:52:57.188Z,2.20
2023-03-24T22:55:23.594Z,3.17
2023-03-24T22:57:50.202Z,2.22
2023-03-24T23:00:19.066Z,2.55
2023-03-24T23:02:45.910Z,2.97
2023-03-24T23:05:12.374Z,2.67
2023-03-24T23:07:39.335Z,3.17
2023-03-24T23:10:08.515Z,2.35
2023-03-24T23:12:36.643Z,2.40
2023-03-24T23:15:04.357Z,1.60
2023-03-24T23:17:30.804Z,1.27
2023-03-24T23:19:57.287Z,1.52
2023-03-24T23:22:23.743Z,2.13
2023-03-24T23:25:00.544Z,1.67
2023-03-24T23:27:32.726Z,1.30
2023-03-24T23:29:59.118Z,3.30
2023-03-24T23:32:25.712Z,1.15
2023-03-24T23:34:52.159Z,3.13
2023-03-24T23:37:18.594Z,1.50
2023-03-24T23:39:45.853Z,1.15
2023-03-24T23:42:12.199Z,1.00
2023-03-24T23:44:38.682Z,3.33
2023-03-24T23:47:05.221Z,1.42
2023-03-24T23:49:31.587Z,2.03
2023-03-24T23:51:57.972Z,1.85
2023-03-24T23:54:24.385Z,1.52
2023-03-24T23:56:51.458Z,1.55
2023-03-24T23:59:18.508Z,2.97
